createdAt,value
2022-11-16T00:00:27.142Z,93.42
2022-11-16T00:02:53.772Z,93.50
2022-11-16T00:05:24.211Z,93.45
2022-11-16T00:07:53.660Z,93.40
2022-11-16T00:10:20.340Z,93.24
2022-11-16T00:12:47.249Z,93.16
2022-11-16T00:15:15.425Z,93.11
2022-11-16T00:17:42.014Z,93.16
2022-11-16T00:20:10.036Z,93.20
2022-11-16T00:22:36.613Z,93.29
2022-11-16T00:25:03.394Z,93.10
2022-11-16T00:27:30.113Z,93.17
2022-11-16T00:29:56.690Z,92.91
2022-11-16T00:32:24.613Z,92.98
2022-11-16T00:34:51.291Z,92.89
2022-11-16T00:37:17.910Z,92.83
2022-11-16T00:39:44.517Z,92.86
2022-11-16T00:42:11.081Z,92.94
2022-11-16T00:44:37.752Z,93.22
2022-11-16T00:47:04.754Z,93.23
2022-11-16T00:49:32.781Z,93.35
2022-11-16T00:51:59.422Z,93.18
2022-11-16T00:54:26.118Z,93.13
2022-11-16T00:56:52.704Z,93.07
2022-11-16T00:59:19.315Z,92.90
2022-11-16T01:01:46.024Z,92.76
2022-11-16T01:04:12.589Z,92.88
2022-11-16T01:06:40.593Z,92.70
2022-11-16T01:09:07.222Z,92.95
2022-11-16T01:11:33.893Z,93.09
2022-11-16T01:14:02.058Z,93.21
2022-11-16T01:16:28.801Z,93.05
2022-11-16T01:18:55.583Z,92.91
2022-11-16T01:21:23.226Z,92.86
2022-11-16T01:23:51.726Z,93.00
2022-11-16T01:26:18.581Z,92.93
2022-11-16T01:28:45.298Z,92.90
2022-11-16T01:31:12.054Z,92.80
2022-11-16T01:33:39.073Z,92.83
2022-11-16T01:36:09.874Z,92.50
2022-11-16T01:38:36.757Z,92.57
2022-11-16T01:41:05.004Z,92.74
2022-11-16T01:43:50.293Z,92.67
2022-11-16T01:46:16.958Z,92.45
2022-11-16T01:48:43.930Z,92.42
2022-11-16T01:51:11.050Z,92.46
2022-11-16T01:53:37.804Z,92.51
2022-11-16T01:56:06.417Z,92.64
2022-11-16T01:58:33.175Z,92.37
2022-11-16T02:01:00.203Z,92.56
2022-11-16T02:03:27.013Z,92.48
2022-11-16T02:06:14.957Z,92.67
2022-11-16T02:08:49.146Z,92.76
2022-11-16T02:11:50.089Z,92.73
2022-11-16T02:14:33.005Z,92.67
2022-11-16T02:17:05.837Z,92.77
2022-11-16T02:20:02.500Z,92.83
2022-11-16T02:22:42.704Z,92.96
2022-11-16T02:25:17.238Z,92.89
2022-11-16T02:28:16.508Z,92.92
2022-11-16T02:30:49.443Z,92.93
2022-11-16T02:33:20.332Z,92.72
2022-11-16T02:35:50.018Z,92.96
2022-11-16T02:38:23.337Z,92.89
2022-11-16T02:40:53.601Z,93.08
2022-11-16T02:43:24.669Z,93.02
2022-11-16T02:45:57.836Z,93.15
2022-11-16T02:48:29.297Z,93.19
2022-11-16T02:50:56.149Z,93.18
2022-11-16T02:53:24.346Z,92.88
2022-11-16T02:55:51.383Z,93.00
2022-11-16T02:58:21.178Z,93.21
2022-11-16T03:00:57.487Z,93.11
2022-11-16T03:03:32.318Z,92.88
2022-11-16T03:06:03.219Z,92.86
2022-11-16T03:08:33.436Z,92.90
2022-11-16T03:11:04.734Z,93.06
2022-11-16T03:13:34.163Z,93.11
2022-11-16T03:16:07.470Z,93.12
2022-11-16T03:18:34.799Z,93.09
2022-11-16T03:21:09.465Z,92.97
2022-11-16T03:23:36.370Z,93.30
2022-11-16T03:26:07.093Z,93.21
2022-11-16T03:28:36.976Z,93.16
2022-11-16T03:31:11.181Z,93.38
2022-11-16T03:33:42.933Z,93.29
2022-11-16T03:36:15.156Z,93.44
2022-11-16T03:38:44.143Z,93.46
2022-11-16T03:41:12.083Z,93.24
2022-11-16T03:43:41.598Z,93.51
2022-11-16T03:46:10.122Z,93.59
2022-11-16T03:48:38.765Z,93.67
2022-11-16T03:51:07.993Z,93.60
2022-11-16T03:53:34.630Z,93.91
2022-11-16T03:56:01.363Z,93.61
2022-11-16T03:58:28.278Z,93.67
2022-11-16T04:00:55.127Z,93.74
2022-11-16T04:03:23.170Z,93.56
2022-11-16T04:05:50.012Z,93.79
2022-11-16T04:08:17.644Z,93.62
2022-11-16T04:10:44.539Z,93.62
2022-11-16T04:13:13.354Z,93.40
2022-11-16T04:15:40.039Z,93.50
2022-11-16T04:18:09.800Z,93.24
2022-11-16T04:20:37.831Z,93.27
2022-11-16T04:23:07.848Z,93.34
2022-11-16T04:25:38.097Z,93.23
2022-11-16T04:28:05.607Z,93.44
2022-11-16T04:30:32.458Z,93.39
2022-11-16T04:32:59.094Z,93.39
2022-11-16T04:35:25.910Z,93.55
2022-11-16T04:37:56.682Z,93.64
2022-11-16T04:40:25.899Z,93.10
2022-11-16T04:42:52.758Z,93.50
2022-11-16T04:45:19.535Z,93.35
2022-11-16T04:47:48.381Z,93.31
2022-11-16T04:50:15.135Z,93.17
2022-11-16T04:52:41.724Z,93.75
2022-11-16T04:55:10.325Z,93.33
2022-11-16T04:57:36.907Z,93.64
2022-11-16T05:00:04.223Z,93.52
2022-11-16T05:02:30.866Z,93.59
2022-11-16T05:04:57.584Z,93.43
2022-11-16T05:07:24.268Z,93.63
2022-11-16T05:09:50.958Z,93.80
2022-11-16T05:12:21.079Z,93.61
2022-11-16T05:14:47.829Z,93.72
2022-11-16T05:17:16.212Z,93.79
2022-11-16T05:19:42.897Z,93.97
2022-11-16T05:22:09.545Z,94.05
2022-11-16T05:24:36.259Z,93.83
2022-11-16T05:27:04.779Z,94.08
2022-11-16T05:29:33.261Z,93.95
2022-11-16T05:32:00.202Z,94.13
2022-11-16T05:34:26.822Z,94.15
2022-11-16T05:36:53.582Z,94.20
2022-11-16T05:39:20.486Z,94.12
2022-11-16T05:41:47.532Z,94.17
2022-11-16T05:44:14.833Z,94.22
2022-11-16T05:46:43.818Z,94.26
2022-11-16T05:49:10.937Z,94.17
2022-11-16T05:51:39.316Z,94.18
2022-11-16T05:54:06.601Z,94.38
2022-11-16T05:56:34.786Z,94.10
2022-11-16T05:59:01.441Z,94.20
2022-11-16T06:01:28.205Z,94.26
2022-11-16T06:03:58.597Z,93.94
2022-11-16T06:06:25.168Z,94.10
2022-11-16T06:08:51.834Z,94.10
2022-11-16T06:11:18.520Z,94.14
2022-11-16T06:13:45.092Z,94.18
2022-11-16T06:16:12.529Z,94.13
2022-11-16T06:18:41.043Z,94.07
2022-11-16T06:21:09.980Z,94.01
2022-11-16T06:23:36.638Z,94.08
2022-11-16T06:26:03.736Z,94.13
2022-11-16T06:28:30.534Z,94.04
2022-11-16T06:30:57.245Z,94.10
2022-11-16T06:33:24.382Z,94.00
2022-11-16T06:35:50.991Z,94.20
2022-11-16T06:38:19.267Z,93.98
2022-11-16T06:40:46.206Z,94.11
2022-11-16T06:43:12.822Z,93.98
2022-11-16T06:45:39.537Z,94.01
2022-11-16T06:48:06.266Z,94.12
2022-11-16T06:50:32.955Z,94.03
2022-11-16T06:52:59.667Z,94.04
2022-11-16T06:55:28.018Z,94.05
2022-11-16T06:57:54.609Z,93.92
2022-11-16T07:00:21.467Z,93.94
2022-11-16T07:02:48.131Z,93.92
2022-11-16T07:05:14.909Z,94.08
2022-11-16T07:07:41.481Z,93.87
2022-11-16T07:10:09.105Z,93.91
2022-11-16T07:12:37.106Z,93.90
2022-11-16T07:15:04.113Z,93.80
2022-11-16T07:17:31.136Z,93.99
2022-11-16T07:19:57.722Z,94.00
2022-11-16T07:22:24.377Z,94.08
2022-11-16T07:24:50.956Z,93.94
2022-11-16T07:27:17.526Z,94.10
2022-11-16T07:29:45.589Z,94.14
2022-11-16T07:32:12.273Z,93.99
2022-11-16T07:34:38.830Z,94.01
2022-11-16T07:37:05.543Z,93.87
2022-11-16T07:39:32.112Z,93.90
2022-11-16T07:41:58.805Z,93.85
2022-11-16T07:44:25.353Z,93.90
2022-11-16T07:46:53.346Z,93.96
2022-11-16T07:49:20.074Z,93.95
2022-11-16T07:51:46.740Z,94.03
2022-11-16T07:54:13.780Z,94.24
2022-11-16T07:56:40.951Z,94.17
2022-11-16T07:59:07.686Z,94.05
2022-11-16T08:01:34.977Z,93.99
2022-11-16T08:04:02.992Z,93.93
2022-11-16T08:06:31.127Z,94.01
2022-11-16T08:08:59.083Z,93.93
2022-11-16T08:11:25.760Z,93.82
2022-11-16T08:13:52.393Z,93.84
2022-11-16T08:16:20.793Z,93.84
2022-11-16T08:18:47.814Z,94.03
2022-11-16T08:21:17.482Z,94.42
2022-11-16T08:23:44.709Z,94.03
2022-11-16T08:26:13.661Z,94.17
2022-11-16T08:28:40.878Z,94.27
2022-11-16T08:31:08.918Z,94.25
2022-11-16T08:33:35.491Z,94.34
2022-11-16T08:36:03.824Z,94.42
2022-11-16T08:38:31.970Z,94.25
2022-11-16T08:40:59.093Z,94.38
2022-11-16T08:43:25.772Z,94.43
2022-11-16T08:45:52.704Z,94.57
2022-11-16T08:48:19.753Z,94.48
2022-11-16T08:51:15.512Z,94.47
2022-11-16T08:53:34.380Z,94.39
2022-11-16T08:56:04.842Z,94.34
2022-11-16T08:58:31.667Z,94.36
2022-11-16T09:00:58.587Z,94.29
2022-11-16T09:03:25.219Z,93.99
2022-11-16T09:05:52.355Z,94.19
2022-11-16T09:08:18.965Z,94.00
2022-11-16T09:10:46.935Z,93.73
2022-11-16T09:13:13.636Z,93.63
2022-11-16T09:15:40.242Z,93.45
2022-11-16T09:18:06.901Z,93.31
2022-11-16T09:20:33.508Z,93.29
2022-11-16T09:23:00.055Z,92.94
2022-11-16T09:25:26.623Z,92.88
2022-11-16T09:27:55.836Z,92.71
2022-11-16T09:30:22.581Z,92.70
2022-11-16T09:32:49.133Z,92.29
2022-11-16T09:35:15.944Z,92.20
2022-11-16T09:37:42.586Z,92.08
2022-11-16T09:40:10.071Z,92.17
2022-11-16T09:42:48.651Z,92.05
2022-11-16T09:45:24.747Z,91.88
2022-11-16T09:47:55.163Z,91.71
2022-11-16T09:50:31.612Z,91.64
2022-11-16T09:53:04.972Z,91.56
2022-11-16T09:55:36.982Z,91.37
2022-11-16T09:58:13.656Z,91.42
2022-11-16T10:00:47.316Z,90.99
2022-11-16T10:03:15.180Z,91.34
2022-11-16T10:05:48.693Z,91.29
2022-11-16T10:08:20.095Z,90.91
2022-11-16T10:10:54.692Z,90.53
2022-11-16T10:13:35.293Z,90.02
2022-11-16T10:16:12.809Z,90.33
2022-11-16T10:18:51.389Z,89.73
2022-11-16T10:21:33.287Z,89.67
2022-11-16T10:24:31.633Z,89.62
2022-11-16T10:27:11.830Z,89.85
2022-11-16T10:29:48.622Z,89.61
2022-11-16T10:32:22.654Z,89.45
2022-11-16T10:34:52.396Z,89.26
2022-11-16T10:37:19.531Z,89.43
2022-11-16T10:39:49.186Z,89.52
2022-11-16T10:42:19.629Z,89.37
2022-11-16T10:44:50.401Z,89.23
2022-11-16T10:47:23.530Z,89.44
2022-11-16T10:49:56.227Z,89.16
2022-11-16T10:52:24.239Z,89.04
2022-11-16T10:54:51.211Z,88.80
2022-11-16T10:57:18.136Z,88.78
2022-11-16T10:59:46.470Z,88.93
2022-11-16T11:02:31.236Z,88.77
2022-11-16T11:05:16.648Z,88.65
2022-11-16T11:07:49.146Z,88.39
2022-11-16T11:10:30.006Z,88.19
2022-11-16T11:13:20.697Z,88.26
2022-11-16T11:15:47.516Z,88.14
2022-11-16T11:18:25.338Z,88.01
2022-11-16T11:21:06.532Z,88.04
2022-11-16T11:23:41.668Z,88.16
2022-11-16T11:26:22.479Z,88.24
2022-11-16T11:28:49.901Z,88.08
2022-11-16T11:31:20.786Z,87.90
2022-11-16T11:33:52.067Z,87.95
2022-11-16T11:36:21.133Z,87.79
2022-11-16T11:39:00.229Z,87.75
2022-11-16T11:41:32.721Z,87.55
2022-11-16T11:44:03.313Z,87.26
2022-11-16T11:47:18.198Z,87.40
2022-11-16T11:49:33.652Z,87.23
2022-11-16T11:52:05.063Z,86.89
2022-11-16T11:54:35.736Z,86.96
2022-11-16T11:57:04.445Z,87.18
2022-11-16T11:59:31.096Z,86.91
2022-11-16T12:02:18.697Z,86.54
2022-11-16T12:05:15.702Z,86.64
2022-11-16T12:08:13.231Z,86.65
2022-11-16T12:10:47.582Z,86.85
2022-11-16T12:13:50.196Z,86.93
2022-11-16T12:16:26.788Z,86.88
2022-11-16T12:19:12.323Z,86.77
2022-11-16T12:21:52.029Z,86.69
2022-11-16T12:24:35.434Z,86.49
2022-11-16T12:27:14.766Z,86.72
2022-11-16T12:29:48.519Z,86.57
2022-11-16T12:32:32.339Z,86.73
2022-11-16T12:35:14.823Z,87.30
2022-11-16T12:37:48.707Z,86.88
2022-11-16T12:40:36.294Z,86.67
2022-11-16T12:43:15.490Z,87.01
2022-11-16T12:46:02.199Z,87.11
2022-11-16T12:48:46.239Z,86.89
2022-11-16T12:51:27.458Z,86.97
2022-11-16T12:54:15.541Z,86.87
2022-11-16T12:56:52.106Z,86.82
2022-11-16T12:59:35.305Z,86.84
2022-11-16T13:02:09.434Z,86.87
2022-11-16T13:04:40.800Z,86.88
2022-11-16T13:07:12.351Z,86.26
2022-11-16T13:09:46.258Z,85.94
2022-11-16T13:12:16.638Z,86.26
2022-11-16T13:14:46.913Z,86.09
2022-11-16T13:17:19.440Z,85.73
2022-11-16T13:20:08.979Z,85.66
2022-11-16T13:22:40.774Z,85.12
2022-11-16T13:25:18.238Z,85.14
2022-11-16T13:27:49.810Z,85.16
2022-11-16T13:30:19.098Z,85.37
2022-11-16T13:33:03.070Z,85.12
2022-11-16T13:35:30.118Z,84.98
2022-11-16T13:37:56.914Z,84.97
2022-11-16T13:40:30.184Z,85.24
2022-11-16T13:43:18.609Z,85.14
2022-11-16T13:45:54.282Z,84.77
2022-11-16T13:48:24.274Z,84.84
2022-11-16T13:50:53.926Z,84.56
2022-11-16T13:56:21.857Z,83.80
2022-11-16T13:58:53.219Z,83.97
2022-11-16T14:01:19.857Z,83.98
2022-11-16T14:03:48.830Z,83.55
2022-11-16T14:06:53.738Z,83.55
2022-11-16T14:09:44.720Z,83.56
2022-11-16T14:12:55.710Z,83.44
2022-11-16T14:15:28.760Z,83.28
2022-11-16T14:17:58.907Z,83.44
2022-11-16T14:20:54.636Z,83.19
2022-11-16T14:23:50.619Z,82.83
2022-11-16T14:26:23.053Z,83.11
2022-11-16T14:29:23.980Z,83.14
2022-11-16T14:31:54.311Z,82.75
2022-11-16T14:34:24.967Z,83.13
2022-11-16T14:36:52.606Z,83.35
2022-11-16T14:39:30.265Z,83.22
2022-11-16T14:42:00.572Z,83.35
2022-11-16T14:44:31.994Z,83.96
2022-11-16T14:47:02.595Z,84.26
2022-11-16T14:49:33.343Z,84.65
2022-11-16T14:52:02.965Z,84.94
2022-11-16T14:54:34.885Z,85.30
2022-11-16T14:57:03.728Z,85.73
2022-11-16T14:59:31.524Z,86.06
2022-11-16T15:02:04.793Z,86.57
2022-11-16T15:04:31.717Z,86.94
2022-11-16T15:07:02.359Z,87.43
2022-11-16T15:09:31.099Z,87.88
2022-11-16T15:12:01.152Z,87.92
2022-11-16T15:14:31.827Z,88.31
2022-11-16T15:16:59.853Z,88.04
2022-11-16T15:19:30.768Z,88.44
2022-11-16T15:21:59.477Z,88.83
2022-11-16T15:24:32.043Z,88.79
2022-11-16T15:27:10.470Z,88.97
2022-11-16T15:29:37.342Z,88.86
2022-11-16T15:32:04.810Z,88.79
2022-11-16T15:34:32.928Z,89.00
2022-11-16T15:36:59.594Z,89.02
2022-11-16T15:39:32.755Z,89.39
2022-11-16T15:42:03.720Z,89.38
2022-11-16T15:44:31.923Z,89.69
2022-11-16T15:46:59.357Z,89.56
2022-11-16T15:49:29.665Z,89.56
2022-11-16T15:51:59.249Z,89.56
2022-11-16T15:54:27.658Z,89.52
2022-11-16T15:56:56.027Z,89.52
2022-11-16T15:59:27.399Z,89.72
2022-11-16T16:01:54.669Z,89.67
2022-11-16T16:04:22.165Z,89.61
2022-11-16T16:06:50.478Z,89.63
2022-11-16T16:09:25.291Z,89.46
2022-11-16T16:11:52.286Z,89.61
2022-11-16T16:14:23.841Z,89.50
2022-11-16T16:16:51.352Z,89.38
2022-11-16T16:19:38.576Z,89.39
2022-11-16T16:22:12.119Z,89.11
2022-11-16T16:24:42.748Z,88.79
2022-11-16T16:27:12.339Z,88.65
2022-11-16T16:29:39.231Z,88.84
2022-11-16T16:32:07.853Z,88.17
2022-11-16T16:34:37.863Z,88.26
2022-11-16T16:37:10.585Z,87.76
2022-11-16T16:39:37.371Z,87.30
2022-11-16T16:42:06.073Z,87.86
2022-11-16T16:44:32.705Z,87.89
2022-11-16T16:46:59.400Z,87.48
2022-11-16T16:49:26.100Z,87.53
2022-11-16T16:51:52.782Z,87.60
2022-11-16T16:54:19.428Z,87.20
2022-11-16T16:56:46.146Z,87.46
2022-11-16T16:59:14.189Z,87.52
2022-11-16T17:01:41.240Z,87.11
2022-11-16T17:04:07.877Z,87.21
2022-11-16T17:06:34.853Z,87.25
2022-11-16T17:09:01.616Z,87.20
2022-11-16T17:11:28.445Z,87.27
2022-11-16T17:13:55.205Z,86.83
2022-11-16T17:16:23.199Z,86.78
2022-11-16T17:18:54.506Z,86.28
2022-11-16T17:21:21.300Z,85.95
2022-11-16T17:23:48.002Z,85.95
2022-11-16T17:26:14.640Z,85.69
2022-11-16T17:28:41.386Z,85.10
2022-11-16T17:31:10.026Z,84.99
2022-11-16T17:33:39.563Z,84.95
2022-11-16T17:36:08.286Z,85.03
2022-11-16T17:38:35.329Z,84.70
2022-11-16T17:41:05.913Z,84.52
2022-11-16T17:43:33.098Z,84.58
2022-11-16T17:46:05.367Z,84.47
2022-11-16T17:48:32.013Z,84.40
2022-11-16T17:51:00.173Z,84.85
2022-11-16T17:53:32.486Z,84.44
2022-11-16T17:55:59.652Z,84.05
2022-11-16T17:58:27.973Z,84.06
2022-11-16T18:00:54.995Z,84.10
2022-11-16T18:03:21.922Z,83.71
2022-11-16T18:05:48.608Z,83.94
2022-11-16T18:08:16.592Z,83.37
2022-11-16T18:10:43.282Z,83.71
2022-11-16T18:13:09.929Z,83.58
2022-11-16T18:15:42.195Z,83.46
2022-11-16T18:18:09.383Z,83.21
2022-11-16T18:20:37.254Z,83.53
2022-11-16T18:23:04.115Z,83.43
2022-11-16T18:25:34.003Z,83.60
2022-11-16T18:28:00.620Z,83.01
2022-11-16T18:30:27.255Z,82.59
2022-11-16T18:32:54.321Z,82.82
2022-11-16T18:35:20.920Z,82.85
2022-11-16T18:37:47.786Z,82.59
2022-11-16T18:40:14.645Z,83.05
2022-11-16T18:42:42.745Z,82.56
2022-11-16T18:45:09.963Z,82.31
2022-11-16T18:47:36.525Z,82.44
2022-11-16T18:50:03.752Z,82.11
2022-11-16T18:52:30.319Z,82.07
2022-11-16T18:54:56.913Z,82.19
2022-11-16T18:57:23.541Z,82.16
2022-11-16T18:59:51.571Z,82.37
2022-11-16T19:02:18.352Z,81.69
2022-11-16T19:04:44.937Z,81.95
2022-11-16T19:07:11.691Z,81.85
2022-11-16T19:09:38.442Z,81.67
2022-11-16T19:12:05.296Z,82.02
2022-11-16T19:14:32.069Z,81.19
2022-11-16T19:17:00.017Z,81.53
2022-11-16T19:19:26.824Z,81.38
2022-11-16T19:21:53.433Z,81.41
2022-11-16T19:24:20.083Z,80.99
2022-11-16T19:26:46.852Z,81.09
2022-11-16T19:29:13.539Z,80.95
2022-11-16T19:31:40.257Z,80.58
2022-11-16T19:34:11.692Z,80.46
2022-11-16T19:36:38.413Z,80.35
2022-11-16T19:39:05.820Z,80.13
2022-11-16T19:41:32.597Z,80.14
2022-11-16T19:44:00.289Z,80.41
2022-11-16T19:46:28.717Z,80.00
2022-11-16T19:48:56.253Z,80.30
2022-11-16T19:51:25.859Z,79.79
2022-11-16T19:53:53.186Z,79.80
2022-11-16T19:56:21.237Z,79.96
2022-11-16T19:58:48.012Z,79.86
2022-11-16T20:01:16.538Z,79.80
2022-11-16T20:03:43.651Z,79.65
2022-11-16T20:06:12.358Z,79.60
2022-11-16T20:08:41.686Z,79.75
2022-11-16T20:11:12.947Z,79.24
2022-11-16T20:13:39.888Z,79.44
2022-11-16T20:16:08.147Z,79.28
2022-11-16T20:18:34.823Z,79.56
2022-11-16T20:21:01.724Z,79.25
2022-11-16T20:23:28.681Z,78.90
2022-11-16T20:25:56.913Z,79.24
2022-11-16T20:28:23.536Z,79.41
2022-11-16T20:30:50.117Z,79.49
2022-11-16T20:33:16.911Z,79.52
2022-11-16T20:35:43.536Z,79.28
2022-11-16T20:38:10.091Z,79.25
2022-11-16T20:40:36.899Z,79.35
2022-11-16T20:43:04.857Z,78.91
2022-11-16T20:45:33.231Z,78.86
2022-11-16T20:47:59.956Z,79.12
2022-11-16T20:50:26.520Z,79.08
2022-11-16T20:52:53.104Z,78.77
2022-11-16T20:55:19.742Z,78.63
2022-11-16T20:57:46.579Z,78.74
2022-11-16T21:00:16.392Z,78.89
2022-11-16T21:02:43.002Z,79.06
2022-11-16T21:05:09.637Z,79.03
2022-11-16T21:07:36.271Z,78.79
2022-11-16T21:10:03.196Z,78.40
2022-11-16T21:12:29.948Z,78.99
2022-11-16T21:14:56.567Z,78.65
2022-11-16T21:17:24.536Z,78.58
2022-11-16T21:20:20.011Z,78.91
2022-11-16T21:22:37.794Z,78.62
2022-11-16T21:25:04.833Z,78.70
2022-11-16T21:27:31.451Z,78.63
2022-11-16T21:29:58.161Z,78.73
2022-11-16T21:32:26.221Z,78.62
2022-11-16T21:34:52.859Z,78.29
2022-11-16T21:37:19.680Z,78.53
2022-11-16T21:39:46.266Z,78.32
2022-11-16T21:42:12.848Z,78.38
2022-11-16T21:44:39.692Z,78.33
2022-11-16T21:47:06.237Z,78.41
2022-11-16T21:49:34.258Z,78.36
2022-11-16T21:52:00.800Z,78.19
2022-11-16T21:54:27.521Z,78.11
2022-11-16T21:56:54.102Z,78.42
2022-11-16T21:59:20.743Z,78.18
2022-11-16T22:01:47.585Z,77.91
2022-11-16T22:04:14.232Z,78.25
2022-11-16T22:06:42.345Z,78.13
2022-11-16T22:09:08.934Z,77.65
2022-11-16T22:11:35.844Z,77.69
2022-11-16T22:14:02.393Z,77.36
2022-11-16T22:16:29.265Z,77.54
2022-11-16T22:18:55.894Z,77.34
2022-11-16T22:21:22.522Z,77.28
2022-11-16T22:23:50.609Z,77.32
2022-11-16T22:26:17.668Z,77.13
2022-11-16T22:28:44.258Z,77.15
2022-11-16T22:31:12.040Z,77.12
2022-11-16T22:33:39.307Z,77.38
2022-11-16T22:36:06.644Z,77.20
2022-11-16T22:38:33.627Z,76.96
2022-11-16T22:41:01.594Z,77.18
2022-11-16T22:43:29.853Z,77.01
2022-11-16T22:45:57.665Z,76.82
2022-11-16T22:48:28.794Z,77.08
2022-11-16T22:51:01.889Z,77.33
2022-11-16T22:53:28.595Z,77.11
2022-11-16T22:55:55.215Z,77.19
2022-11-16T22:58:23.481Z,77.30
2022-11-16T23:00:51.623Z,77.59
2022-11-16T23:03:18.265Z,76.97
2022-11-16T23:05:44.889Z,77.51
2022-11-16T23:08:11.456Z,77.05
2022-11-16T23:10:38.068Z,77.33
2022-11-16T23:13:04.675Z,76.90
2022-11-16T23:15:32.624Z,77.30
2022-11-16T23:17:59.198Z,77.15
2022-11-16T23:20:25.828Z,77.26
2022-11-16T23:22:52.470Z,77.22
2022-11-16T23:25:19.181Z,77.52
2022-11-16T23:27:55.408Z,77.12
2022-11-16T23:30:22.365Z,77.20
2022-11-16T23:32:50.693Z,76.93
2022-11-16T23:35:18.004Z,76.93
2022-11-16T23:37:52.366Z,77.09
2022-11-16T23:40:19.018Z,76.89
2022-11-16T23:42:45.669Z,76.92
2022-11-16T23:45:12.390Z,77.01
2022-11-16T23:47:39.024Z,76.78
2022-11-16T23:50:07.694Z,77.01
2022-11-16T23:52:34.271Z,77.25
2022-11-16T23:55:00.881Z,77.18
2022-11-16T23:57:27.446Z,77.13
2022-11-16T23:59:54.065Z,77.33
